Time;durP1;ratioP1;P1;durP2;ratioP2;P2;SDS_P1;SDS_P2;PMS_P1;PMS_P2;Temp;Humidity;BMP_temperature;BMP_pressure;BME280_temperature;BME280_humidity;BME280_pressure;Samples;Min_cycle;Max_cycle;Signal;HPM_P1;HPM_P2
2023/02/19 00:02:02;;;;;;;;;;;;;;;;;;4438329;32;20362;-79
2023/02/19 00:04:27;;;;;;;;;;;;;;;;;;4439616;32;19936;-79
2023/02/19 00:06:52;;;;;;;;;;;;;;;;;;4424046;32;19937;-79
2023/02/19 00:09:17;;;;;;;;;;;;;;;;;;4425516;32;20382;-79
2023/02/19 00:11:42;;;;;;;;;;;;;;;;;;4438481;32;19952;-79
2023/02/19 00:14:08;;;;;;;;;;;;;;;;;;4438151;32;19970;-77
2023/02/19 00:16:33;;;;;;;;;;;;;;;;;;4440235;32;19937;-79
2023/02/19 00:18:58;;;;;;;;;;;;;;;;;;4440296;32;19973;-80
2023/02/19 00:21:23;;;;;;;;;;;;;;;;;;4441358;32;19968;-79
2023/02/19 00:23:48;;;;;;;;;;;;;;;;;;4438276;32;19948;-80
2023/02/19 00:26:13;;;;;;;;;;;;;;;;;;4425244;32;19966;-79
2023/02/19 00:28:39;;;;;;;;;;;;;;;;;;4440270;32;19980;-80
2023/02/19 00:31:04;;;;;;;;;;;;;;;;;;4437975;32;19974;-79
2023/02/19 00:33:29;;;;;;;;;;;;;;;;;;4426117;32;19988;-80
2023/02/19 00:35:54;;;;;;;;;;;;;;;;;;4438906;32;19947;-79
2023/02/19 00:38:19;;;;;;;;;;;;;;;;;;4438336;32;20310;-80
2023/02/19 00:40:44;;;;;;;;;;;;;;;;;;4438077;32;19977;-80
2023/02/19 00:43:09;;;;;;;;;;;;;;;;;;4438327;32;19936;-80
2023/02/19 00:45:34;;;;;;;;;;;;;;;;;;4438782;32;19947;-80
2023/02/19 00:47:59;;;;;;;;;;;;;;;;;;4438921;32;20397;-80
2023/02/19 00:50:24;;;;;;;;;;;;;;;;;;4438299;32;19988;-80
2023/02/19 00:52:49;;;;;;;;;;;;;;;;;;4438482;32;20005;-81
2023/02/19 00:55:15;;;;;;;;;;;;;;;;;;4439127;32;19937;-80
2023/02/19 00:57:40;;;;;;;;;;;;;;;;;;4438944;32;19978;-79
2023/02/19 01:00:05;;;;;;;;;;;;;;;;;;4438367;32;19952;-79
2023/02/19 01:02:30;;;;;;;;;;;;;;;;;;4439640;32;19982;-79
2023/02/19 01:04:55;;;;;;;;;;;;;;;;;;4440548;32;19945;-79
2023/02/19 01:07:20;;;;;;;;;;;;;;;;;;4439585;32;20046;-79
2023/02/19 01:09:45;;;;;;;;;;;;;;;;;;4441588;32;19932;-80
2023/02/19 01:12:10;;;;;;;;;;;;;;;;;;4438490;32;19947;-79
2023/02/19 01:14:36;;;;;;;;;;;;;;;;;;4439043;32;20307;-79
2023/02/19 01:17:01;;;;;;;;;;;;;;;;;;4436793;32;19933;-79
2023/02/19 01:19:26;;;;;;;;;;;;;;;;;;4439421;32;19941;-79
2023/02/19 01:21:51;;;;;;;;;;;;;;;;;;4426407;32;19937;-79
2023/02/19 01:24:16;;;;;;;;;;;;;;;;;;4439505;32;19937;-79
2023/02/19 01:26:41;;;;;;;;;;;;;;;;;;4440936;32;19976;-80
2023/02/19 01:29:06;;;;;;;;;;;;;;;;;;4439929;32;19933;-79
2023/02/19 01:31:31;;;;;;;;;;;;;;;;;;4439285;32;19980;-79
2023/02/19 01:33:56;;;;;;;;;;;;;;;;;;4438723;32;19971;-80
2023/02/19 01:36:21;;;;;;;;;;;;;;;;;;4438647;32;19941;-79
2023/02/19 01:38:47;;;;;;;;;;;;;;;;;;4437557;32;20270;-79
2023/02/19 01:41:12;;;;;;;;;;;;;;;;;;4439545;32;19965;-80
2023/02/19 01:43:37;;;;;;;;;;;;;;;;;;4444187;32;19936;-79
2023/02/19 01:46:02;;;;;;;;;;;;;;;;;;4441947;32;19952;-80
2023/02/19 01:48:27;;;;;;;;;;;;;;;;;;4437651;32;19940;-79
2023/02/19 01:50:52;;;;;;;;;;;;;;;;;;4439399;32;19994;-79
2023/02/19 01:53:17;;;;;;;;;;;;;;;;;;4437358;32;19948;-79
2023/02/19 01:55:43;;;;;;;;;;;;;;;;;;4440088;32;19937;-79
2023/02/19 01:58:08;;;;;;;;;;;;;;;;;;4427279;32;19980;-80
2023/02/19 02:00:33;;;;;;;;;;;;;;;;;;4423609;32;20300;-79
2023/02/19 02:02:58;;;;;;;;;;;;;;;;;;4438966;32;19948;-79
2023/02/19 02:05:23;;;;;;;;;;;;;;;;;;4439420;32;19944;-80
2023/02/19 02:10:32;;;;;;;;;;;;;;;;;;4440041;32;19946;-80
2023/02/19 02:12:57;;;;;;;;;;;;;;;;;;4438785;32;19937;-80
2023/02/19 02:15:22;;;;;;;;;;;;;;;;;;4436718;32;19947;-79
2023/02/19 02:17:48;;;;;;;;;;;;;;;;;;4438801;32;19975;-80
2023/02/19 02:20:13;;;;;;;;;;;;;;;;;;4424751;32;20363;-81
2023/02/19 02:22:38;;;;;;;;;;;;;;;;;;4438112;32;19971;-79
2023/02/19 02:25:03;;;;;;;;;;;;;;;;;;4438240;32;19936;-78
2023/02/19 02:27:28;;;;;;;;;;;;;;;;;;4437144;32;19937;-79
2023/02/19 02:29:53;;;;;;;;;;;;;;;;;;4440037;32;19951;-79
2023/02/19 02:32:18;;;;;;;;;;;;;;;;;;4441470;32;19947;-79
2023/02/19 02:34:43;;;;;;;;;;;;;;;;;;4446688;32;19947;-80
2023/02/19 02:37:08;;;;;;;;;;;;;;;;;;4444256;32;19936;-79
2023/02/19 02:39:33;;;;;;;;;;;;;;;;;;4440248;32;19951;-79
2023/02/19 02:45:33;;;;;;;;;;;;;;;;;;4441549;32;19927;-80
2023/02/19 02:47:40;;;;;;;;;;;;;;;;;;4439982;32;19936;-81
2023/02/19 02:50:05;;;;;;;;;;;;;;;;;;4439574;32;20323;-79
2023/02/19 02:55:14;;;;;;;;;;;;;;;;;;4440723;32;19952;-80
2023/02/19 02:57:39;;;;;;;;;;;;;;;;;;4440383;32;19937;-80
2023/02/19 03:00:04;;;;;;;;;;;;;;;;;;4442655;32;19973;-79
2023/02/19 03:02:30;;;;;;;;;;;;;;;;;;4439605;32;19976;-78
2023/02/19 03:07:39;;;;;;;;;;;;;;;;;;4440895;32;19964;-79
2023/02/19 03:10:04;;;;;;;;;;;;;;;;;;4439783;32;19936;-80
2023/02/19 03:20:41;;;;;;;;;;;;;;;;;;4440592;32;19944;-79
2023/02/19 03:23:06;;;;;;;;;;;;;;;;;;4439740;32;19936;-78
2023/02/19 03:28:16;;;;;;;;;;;;;;;;;;4441216;32;19970;-79
2023/02/19 03:30:41;;;;;;;;;;;;;;;;;;4438848;32;19948;-79
2023/02/19 03:33:06;;;;;;;;;;;;;;;;;;4439572;32;19955;-78
2023/02/19 03:35:32;;;;;;;;;;;;;;;;;;4438062;32;19944;-77
2023/02/19 03:37:57;;;;;;;;;;;;;;;;;;4438112;32;19995;-77
2023/02/19 03:40:22;;;;;;;;;;;;;;;;;;4439351;32;19945;-77
2023/02/19 03:42:47;;;;;;;;;;;;;;;;;;4438813;32;19951;-77
2023/02/19 03:45:12;;;;;;;;;;;;;;;;;;4440040;32;19950;-77
2023/02/19 03:47:37;;;;;;;;;;;;;;;;;;4439268;32;19956;-77
2023/02/19 03:50:02;;;;;;;;;;;;;;;;;;4439783;32;20071;-77
2023/02/19 03:52:27;;;;;;;;;;;;;;;;;;4438405;32;20278;-77
2023/02/19 03:54:53;;;;;;;;;;;;;;;;;;4439926;32;19977;-77
2023/02/19 03:57:18;;;;;;;;;;;;;;;;;;4438035;32;19949;-76
2023/02/19 03:59:43;;;;;;;;;;;;;;;;;;4437956;32;19944;-74
2023/02/19 04:02:08;;;;;;;;;;;;;;;;;;4438073;32;19944;-75
2023/02/19 04:04:33;;;;;;;;;;;;;;;;;;4440053;32;19977;-75
2023/02/19 04:06:58;;;;;;;;;;;;;;;;;;4439719;32;19933;-77
2023/02/19 04:09:23;;;;;;;;;;;;;;;;;;4423639;32;19947;-75
2023/02/19 04:11:48;;;;;;;;;;;;;;;;;;4423645;32;19949;-75
2023/02/19 04:14:13;;;;;;;;;;;;;;;;;;4438013;32;20358;-75
2023/02/19 04:16:39;;;;;;;;;;;;;;;;;;4425603;32;19937;-76
2023/02/19 04:19:04;;;;;;;;;;;;;;;;;;4441505;32;20274;-76
2023/02/19 04:21:29;;;;;;;;;;;;;;;;;;4440196;32;19933;-75
2023/02/19 04:23:54;;;;;;;;;;;;;;;;;;4423737;32;19940;-76
2023/02/19 04:26:19;;;;;;;;;;;;;;;;;;4441118;32;19970;-76
2023/02/19 04:28:44;;;;;;;;;;;;;;;;;;4439058;32;19932;-76
2023/02/19 04:31:09;;;;;;;;;;;;;;;;;;4438022;32;19937;-76
2023/02/19 04:33:34;;;;;;;;;;;;;;;;;;4438710;32;19967;-76
2023/02/19 04:36:00;;;;;;;;;;;;;;;;;;4438954;32;19984;-76
2023/02/19 04:38:25;;;;;;;;;;;;;;;;;;4424036;32;19949;-76
2023/02/19 04:40:50;;;;;;;;;;;;;;;;;;4438830;32;19968;-76
2023/02/19 04:43:15;;;;;;;;;;;;;;;;;;4437848;32;20005;-76
2023/02/19 04:45:40;;;;;;;;;;;;;;;;;;4423436;32;19936;-77
2023/02/19 04:48:05;;;;;;;;;;;;;;;;;;4438053;32;20327;-77
2023/02/19 04:50:30;;;;;;;;;;;;;;;;;;4438666;32;19979;-78
2023/02/19 04:52:55;;;;;;;;;;;;;;;;;;4438391;32;19941;-77
2023/02/19 04:55:21;;;;;;;;;;;;;;;;;;4438342;32;20005;-78
2023/02/19 04:57:46;;;;;;;;;;;;;;;;;;4437470;32;19932;-77
2023/02/19 05:00:11;;;;;;;;;;;;;;;;;;4436546;32;20298;-78
2023/02/19 05:02:36;;;;;;;;;;;;;;;;;;4422829;32;19980;-78
2023/02/19 05:05:01;;;;;;;;;;;;;;;;;;4438629;32;19965;-78
2023/02/19 05:07:26;;;;;;;;;;;;;;;;;;4438058;32;19970;-78
2023/02/19 05:09:51;;;;;;;;;;;;;;;;;;4438472;32;19933;-78
2023/02/19 05:12:16;;;;;;;;;;;;;;;;;;4437750;32;19977;-78
2023/02/19 05:14:41;;;;;;;;;;;;;;;;;;4439864;32;19932;-78
2023/02/19 05:17:06;;;;;;;;;;;;;;;;;;4436945;32;19971;-79
2023/02/19 05:19:31;;;;;;;;;;;;;;;;;;4436858;32;19940;-79
2023/02/19 05:21:57;;;;;;;;;;;;;;;;;;4423067;32;19960;-79
2023/02/19 05:24:23;;;;;;;;;;;;;;;;;;4438060;32;19969;-79
2023/02/19 05:26:48;;;;;;;;;;;;;;;;;;4438762;32;20391;-79
2023/02/19 05:29:13;;;;;;;;;;;;;;;;;;4437646;32;19937;-78
2023/02/19 05:31:38;;;;;;;;;;;;;;;;;;4437984;32;19967;-78
2023/02/19 05:34:03;;;;;;;;;;;;;;;;;;4424080;32;19936;-78
2023/02/19 05:36:29;;;;;;;;;;;;;;;;;;4437069;32;19959;-78
2023/02/19 05:38:54;;;;;;;;;;;;;;;;;;4426709;32;19997;-78
2023/02/19 05:41:19;;;;;;;;;;;;;;;;;;4437767;32;19941;-79
2023/02/19 05:43:44;;;;;;;;;;;;;;;;;;4437148;32;19980;-79
2023/02/19 05:46:09;;;;;;;;;;;;;;;;;;4437833;32;19970;-79
2023/02/19 05:48:34;;;;;;;;;;;;;;;;;;4438200;32;19945;-79
2023/02/19 05:50:59;;;;;;;;;;;;;;;;;;4437368;32;19945;-79
2023/02/19 05:53:24;;;;;;;;;;;;;;;;;;4437446;32;19933;-78
2023/02/19 05:55:49;;;;;;;;;;;;;;;;;;4436798;32;20368;-77
2023/02/19 05:58:14;;;;;;;;;;;;;;;;;;4438115;32;19951;-78
2023/02/19 06:00:40;;;;;;;;;;;;;;;;;;4444268;32;19993;-77
2023/02/19 06:03:05;;;;;;;;;;;;;;;;;;4437849;32;19989;-79
2023/02/19 06:05:30;;;;;;;;;;;;;;;;;;4437215;32;19937;-79
2023/02/19 06:07:55;;;;;;;;;;;;;;;;;;4436983;32;20309;-78
2023/02/19 06:10:20;;;;;;;;;;;;;;;;;;4436535;32;19956;-79
2023/02/19 06:12:45;;;;;;;;;;;;;;;;;;4437973;32;20281;-79
2023/02/19 06:15:10;;;;;;;;;;;;;;;;;;4422489;32;20013;-78
2023/02/19 06:17:35;;;;;;;;;;;;;;;;;;4438139;32;20235;-76
2023/02/19 06:20:00;;;;;;;;;;;;;;;;;;4435955;32;19969;-77
2023/02/19 06:22:25;;;;;;;;;;;;;;;;;;4435951;32;19980;-77
2023/02/19 06:24:50;;;;;;;;;;;;;;;;;;4436330;32;19964;-78
2023/02/19 06:27:16;;;;;;;;;;;;;;;;;;4435777;32;19981;-78
2023/02/19 06:29:42;;;;;;;;;;;;;;;;;;4436747;32;19941;-78
2023/02/19 06:32:07;;;;;;;;;;;;;;;;;;4435962;32;19947;-77
2023/02/19 06:34:32;;;;;;;;;;;;;;;;;;4423390;32;19933;-78
2023/02/19 06:36:57;;;;;;;;;;;;;;;;;;4436117;32;19932;-78
2023/02/19 06:39:22;;;;;;;;;;;;;;;;;;4435747;32;20311;-78
2023/02/19 06:41:47;;;;;;;;;;;;;;;;;;4437666;32;19974;-79
2023/02/19 06:44:12;;;;;;;;;;;;;;;;;;4437066;32;19980;-79
2023/02/19 06:46:37;;;;;;;;;;;;;;;;;;4436892;32;19937;-78
2023/02/19 06:49:03;;;;;;;;;;;;;;;;;;4436888;32;19960;-78
2023/02/19 06:51:28;;;;;;;;;;;;;;;;;;4437405;32;19933;-78
2023/02/19 06:53:53;;;;;;;;;;;;;;;;;;4436640;32;19941;-79
2023/02/19 06:56:18;;;;;;;;;;;;;;;;;;4436041;32;19933;-78
2023/02/19 06:58:43;;;;;;;;;;;;;;;;;;4436340;32;19941;-77
2023/02/19 07:01:08;;;;;;;;;;;;;;;;;;4437770;32;19947;-77
2023/02/19 07:03:33;;;;;;;;;;;;;;;;;;4437298;32;20007;-78
2023/02/19 07:05:59;;;;;;;;;;;;;;;;;;4437486;32;20315;-78
2023/02/19 07:08:24;;;;;;;;;;;;;;;;;;4435781;32;19933;-78
2023/02/19 07:10:49;;;;;;;;;;;;;;;;;;4436836;32;19937;-78
2023/02/19 07:13:15;;;;;;;;;;;;;;;;;;4423626;32;19949;-79
2023/02/19 07:15:40;;;;;;;;;;;;;;;;;;4437589;32;19937;-78
2023/02/19 07:18:09;;;;;;;;;;;;;;;;;;4438159;32;19952;-77
2023/02/19 07:20:34;;;;;;;;;;;;;;;;;;4424148;32;20220;-75
2023/02/19 07:22:59;;;;;;;;;;;;;;;;;;4425012;32;20046;-76
2023/02/19 07:25:24;;;;;;;;;;;;;;;;;;4438144;32;19936;-76
2023/02/19 07:27:49;;;;;;;;;;;;;;;;;;4438342;32;19933;-76
2023/02/19 07:30:14;;;;;;;;;;;;;;;;;;4438202;32;20251;-76
2023/02/19 07:32:39;;;;;;;;;;;;;;;;;;4438791;32;19937;-75
2023/02/19 07:35:04;;;;;;;;;;;;;;;;;;4439803;32;19952;-74
2023/02/19 07:37:29;;;;;;;;;;;;;;;;;;4438195;32;20286;-74
2023/02/19 07:39:54;;;;;;;;;;;;;;;;;;4425499;32;19976;-75
2023/02/19 07:42:20;;;;;;;;;;;;;;;;;;4439595;32;19933;-75
2023/02/19 07:44:45;;;;;;;;;;;;;;;;;;4425352;32;19937;-76
2023/02/19 07:47:10;;;;;;;;;;;;;;;;;;4437607;32;19947;-75
2023/02/19 07:49:35;;;;;;;;;;;;;;;;;;4438867;32;19976;-75
2023/02/19 07:52:00;;;;;;;;;;;;;;;;;;4437515;32;20349;-74
2023/02/19 07:54:25;;;;;;;;;;;;;;;;;;4424585;32;19936;-74
2023/02/19 07:56:50;;;;;;;;;;;;;;;;;;4424823;32;20009;-75
2023/02/19 07:59:18;;;;;;;;;;;;;;;;;;4439193;32;19976;-76
2023/02/19 08:04:27;;;;;;;;;;;;;;;;;;4437819;32;19932;-75
2023/02/19 08:06:52;;;;;;;;;;;;;;;;;;4438808;32;19981;-76
2023/02/19 08:09:17;;;;;;;;;;;;;;;;;;4437710;32;19955;-75
2023/02/19 08:14:26;;;;;;;;;;;;;;;;;;4439328;32;20359;-76
2023/02/19 08:16:51;;;;;;;;;;;;;;;;;;4425121;32;20354;-75
2023/02/19 08:19:16;;;;;;;;;;;;;;;;;;4424728;32;19964;-74
2023/02/19 08:21:41;;;;;;;;;;;;;;;;;;4439060;32;19933;-77
2023/02/19 08:24:06;;;;;;;;;;;;;;;;;;4437250;32;19941;-77
2023/02/19 08:26:31;;;;;;;;;;;;;;;;;;4438917;32;19974;-76
2023/02/19 08:28:57;;;;;;;;;;;;;;;;;;4439160;32;20280;-77
2023/02/19 08:31:22;;;;;;;;;;;;;;;;;;4422807;32;19929;-76
2023/02/19 08:33:47;;;;;;;;;;;;;;;;;;4437282;32;19970;-78
2023/02/19 08:36:13;;;;;;;;;;;;;;;;;;4437157;32;20296;-77
2023/02/19 08:38:38;;;;;;;;;;;;;;;;;;4437388;32;19944;-76
2023/02/19 08:41:03;;;;;;;;;;;;;;;;;;4438224;32;19965;-75
2023/02/19 08:43:28;;;;;;;;;;;;;;;;;;4437574;32;20291;-76
2023/02/19 08:45:54;;;;;;;;;;;;;;;;;;4438001;32;20360;-76
2023/02/19 08:48:19;;;;;;;;;;;;;;;;;;4422817;32;19928;-77
2023/02/19 08:50:44;;;;;;;;;;;;;;;;;;4422561;32;19987;-76
2023/02/19 08:53:09;;;;;;;;;;;;;;;;;;4422435;32;19987;-75
2023/02/19 08:55:34;;;;;;;;;;;;;;;;;;4437560;32;19941;-75
2023/02/19 08:57:59;;;;;;;;;;;;;;;;;;4438227;32;19972;-76
2023/02/19 09:00:26;;;;;;;;;;;;;;;;;;4423274;32;20371;-76
2023/02/19 09:02:51;;;;;;;;;;;;;;;;;;4437767;32;20035;-76
2023/02/19 09:05:17;;;;;;;;;;;;;;;;;;4440144;32;19937;-76
2023/02/19 09:07:42;;;;;;;;;;;;;;;;;;4439418;32;19937;-76
2023/02/19 09:10:07;;;;;;;;;;;;;;;;;;4436601;32;19932;-76
2023/02/19 09:12:32;;;;;;;;;;;;;;;;;;4424032;32;19970;-76
2023/02/19 09:14:58;;;;;;;;;;;;;;;;;;4436435;32;19941;-76
2023/02/19 09:17:23;;;;;;;;;;;;;;;;;;4422627;32;20024;-76
2023/02/19 09:19:48;;;;;;;;;;;;;;;;;;4421993;32;19973;-76
2023/02/19 09:22:13;;;;;;;;;;;;;;;;;;4436004;32;20313;-76
2023/02/19 09:24:38;;;;;;;;;;;;;;;;;;4436525;32;19963;-76
2023/02/19 09:27:03;;;;;;;;;;;;;;;;;;4437792;32;19941;-76
2023/02/19 09:29:28;;;;;;;;;;;;;;;;;;4436771;32;19943;-76
2023/02/19 09:31:53;;;;;;;;;;;;;;;;;;4437737;32;19947;-77
2023/02/19 09:34:18;;;;;;;;;;;;;;;;;;4436508;32;19957;-76
2023/02/19 09:36:43;;;;;;;;;;;;;;;;;;4438013;32;20308;-76
2023/02/19 09:39:11;;;;;;;;;;;;;;;;;;4439778;32;19941;-77
2023/02/19 09:41:36;;;;;;;;;;;;;;;;;;4437955;32;19933;-78
2023/02/19 09:44:01;;;;;;;;;;;;;;;;;;4436737;32;20005;-78
2023/02/19 09:46:26;;;;;;;;;;;;;;;;;;4422640;32;19957;-78
2023/02/19 09:48:51;;;;;;;;;;;;;;;;;;4437280;32;19990;-77
2023/02/19 09:51:16;;;;;;;;;;;;;;;;;;4435795;32;19933;-78
2023/02/19 09:53:41;;;;;;;;;;;;;;;;;;4437681;32;19937;-79
2023/02/19 09:56:07;;;;;;;;;;;;;;;;;;4437974;32;19932;-79
2023/02/19 09:58:32;;;;;;;;;;;;;;;;;;4437203;32;19940;-79
2023/02/19 10:00:57;;;;;;;;;;;;;;;;;;4437861;32;19941;-78
2023/02/19 10:03:22;;;;;;;;;;;;;;;;;;4437420;32;20071;-78
2023/02/19 10:05:47;;;;;;;;;;;;;;;;;;4435834;32;19951;-79
2023/02/19 10:08:12;;;;;;;;;;;;;;;;;;4436482;32;19960;-78
2023/02/19 10:10:37;;;;;;;;;;;;;;;;;;4421799;32;19932;-78
2023/02/19 10:13:02;;;;;;;;;;;;;;;;;;4437577;32;19987;-79
2023/02/19 10:15:27;;;;;;;;;;;;;;;;;;4423131;32;19933;-79
2023/02/19 10:17:53;;;;;;;;;;;;;;;;;;4436666;32;19951;-79
2023/02/19 10:20:18;;;;;;;;;;;;;;;;;;4436017;32;19940;-78
2023/02/19 10:22:43;;;;;;;;;;;;;;;;;;4422124;32;20004;-78
2023/02/19 10:25:08;;;;;;;;;;;;;;;;;;4436240;32;19941;-78
2023/02/19 10:27:33;;;;;;;;;;;;;;;;;;4435693;32;20231;-79
2023/02/19 10:29:58;;;;;;;;;;;;;;;;;;4437320;32;19933;-79
2023/02/19 10:32:23;;;;;;;;;;;;;;;;;;4435466;32;19941;-78
2023/02/19 10:34:48;;;;;;;;;;;;;;;;;;4437288;32;19951;-79
2023/02/19 10:37:14;;;;;;;;;;;;;;;;;;4437405;32;19975;-78
2023/02/19 10:39:40;;;;;;;;;;;;;;;;;;4435422;32;19955;-78
2023/02/19 10:42:06;;;;;;;;;;;;;;;;;;4435467;32;19937;-77
2023/02/19 10:44:31;;;;;;;;;;;;;;;;;;4436079;32;19967;-77
2023/02/19 10:46:56;;;;;;;;;;;;;;;;;;4436533;32;19953;-77
2023/02/19 10:49:21;;;;;;;;;;;;;;;;;;4437315;32;19987;-78
2023/02/19 10:51:46;;;;;;;;;;;;;;;;;;4424451;32;19940;-77
2023/02/19 10:54:11;;;;;;;;;;;;;;;;;;4424931;32;19928;-78
2023/02/19 10:56:39;;;;;;;;;;;;;;;;;;4438577;32;19947;-78
2023/02/19 10:59:04;;;;;;;;;;;;;;;;;;4425342;32;19936;-77
2023/02/19 11:01:29;;;;;;;;;;;;;;;;;;4438617;32;19933;-77
2023/02/19 11:03:54;;;;;;;;;;;;;;;;;;4439502;32;19947;-79
2023/02/19 11:06:19;;;;;;;;;;;;;;;;;;4439157;32;19975;-79
2023/02/19 11:08:45;;;;;;;;;;;;;;;;;;4423994;32;19948;-77
2023/02/19 11:11:10;;;;;;;;;;;;;;;;;;4438880;32;19941;-77
2023/02/19 11:13:36;;;;;;;;;;;;;;;;;;4424463;32;19937;-78
2023/02/19 11:16:02;;;;;;;;;;;;;;;;;;4438560;32;19974;-79
2023/02/19 11:18:27;;;;;;;;;;;;;;;;;;4425453;32;19937;-78
2023/02/19 11:20:55;;;;;;;;;;;;;;;;;;4442747;32;19937;-77
2023/02/19 11:23:21;;;;;;;;;;;;;;;;;;4441470;32;19976;-79
2023/02/19 11:25:46;;;;;;;;;;;;;;;;;;4439478;32;20055;-78
2023/02/19 11:28:11;;;;;;;;;;;;;;;;;;4439166;32;19983;-79
2023/02/19 11:30:36;;;;;;;;;;;;;;;;;;4426972;32;19936;-79
2023/02/19 11:33:01;;;;;;;;;;;;;;;;;;4441164;32;19968;-78
2023/02/19 11:35:26;;;;;;;;;;;;;;;;;;4438593;32;19936;-79
2023/02/19 11:37:51;;;;;;;;;;;;;;;;;;4438551;32;19945;-78
2023/02/19 11:40:16;;;;;;;;;;;;;;;;;;4438572;32;19973;-78
2023/02/19 11:42:41;;;;;;;;;;;;;;;;;;4424780;32;19941;-79
2023/02/19 11:45:07;;;;;;;;;;;;;;;;;;4425136;32;20269;-78
2023/02/19 11:47:32;;;;;;;;;;;;;;;;;;4438505;32;20023;-78
2023/02/19 11:49:57;;;;;;;;;;;;;;;;;;4438825;32;19956;-79
2023/02/19 11:52:22;;;;;;;;;;;;;;;;;;4440204;32;19972;-78
2023/02/19 11:54:48;;;;;;;;;;;;;;;;;;4438287;32;19937;-78
2023/02/19 11:57:13;;;;;;;;;;;;;;;;;;4437707;32;19932;-79
2023/02/19 11:59:38;;;;;;;;;;;;;;;;;;4423694;32;19952;-78
2023/02/19 12:02:03;;;;;;;;;;;;;;;;;;4437488;32;20295;-78
2023/02/19 12:04:28;;;;;;;;;;;;;;;;;;4437896;32;19933;-79
2023/02/19 12:06:53;;;;;;;;;;;;;;;;;;4439348;32;20082;-79
2023/02/19 12:09:18;;;;;;;;;;;;;;;;;;4438359;32;19959;-78
2023/02/19 12:11:43;;;;;;;;;;;;;;;;;;4439435;32;19966;-78
2023/02/19 12:14:08;;;;;;;;;;;;;;;;;;4424289;32;19975;-77
2023/02/19 12:16:34;;;;;;;;;;;;;;;;;;4443370;32;19958;-77
2023/02/19 12:18:59;;;;;;;;;;;;;;;;;;4442735;32;20239;-77
2023/02/19 12:21:24;;;;;;;;;;;;;;;;;;4441171;32;19937;-78
2023/02/19 12:23:49;;;;;;;;;;;;;;;;;;4437870;32;20324;-77
2023/02/19 12:26:14;;;;;;;;;;;;;;;;;;4439549;32;19945;-79
2023/02/19 12:28:39;;;;;;;;;;;;;;;;;;4439088;32;19989;-78
2023/02/19 12:31:04;;;;;;;;;;;;;;;;;;4437780;32;19937;-78
2023/02/19 12:33:30;;;;;;;;;;;;;;;;;;4437030;32;20013;-80
2023/02/19 12:35:55;;;;;;;;;;;;;;;;;;4438961;32;19933;-78
2023/02/19 12:38:21;;;;;;;;;;;;;;;;;;4438179;32;19988;-78
2023/02/19 12:40:48;;;;;;;;;;;;;;;;;;4423592;32;19933;-78
2023/02/19 12:43:13;;;;;;;;;;;;;;;;;;4422732;32;19937;-80
2023/02/19 12:45:38;;;;;;;;;;;;;;;;;;4437253;32;19967;-79
2023/02/19 12:48:03;;;;;;;;;;;;;;;;;;4438627;32;19941;-79
2023/02/19 12:50:28;;;;;;;;;;;;;;;;;;4436602;32;19947;-79
2023/02/19 12:52:53;;;;;;;;;;;;;;;;;;4436721;32;19936;-79
2023/02/19 12:55:19;;;;;;;;;;;;;;;;;;4423274;32;19947;-79
2023/02/19 12:57:44;;;;;;;;;;;;;;;;;;4438499;32;19932;-79
2023/02/19 13:00:09;;;;;;;;;;;;;;;;;;4437455;32;19951;-79
2023/02/19 13:02:34;;;;;;;;;;;;;;;;;;4437148;32;19941;-79
2023/02/19 13:04:59;;;;;;;;;;;;;;;;;;4436389;32;20298;-78
2023/02/19 13:07:24;;;;;;;;;;;;;;;;;;4437118;32;20014;-78
2023/02/19 13:09:49;;;;;;;;;;;;;;;;;;4438043;32;19951;-78
2023/02/19 13:12:14;;;;;;;;;;;;;;;;;;4437831;32;19933;-79
2023/02/19 13:14:39;;;;;;;;;;;;;;;;;;4437662;32;19963;-78
2023/02/19 13:17:04;;;;;;;;;;;;;;;;;;4440162;32;19948;-79
2023/02/19 13:19:30;;;;;;;;;;;;;;;;;;4439664;32;19992;-78
2023/02/19 13:24:39;;;;;;;;;;;;;;;;;;4438290;32;19959;-78
2023/02/19 13:27:04;;;;;;;;;;;;;;;;;;4437800;32;19945;-79
2023/02/19 13:29:29;;;;;;;;;;;;;;;;;;4438051;32;20000;-79
2023/02/19 13:31:54;;;;;;;;;;;;;;;;;;4437374;32;20015;-78
2023/02/19 13:34:19;;;;;;;;;;;;;;;;;;4437093;32;19988;-78
2023/02/19 13:36:44;;;;;;;;;;;;;;;;;;4439132;32;19933;-77
2023/02/19 13:39:09;;;;;;;;;;;;;;;;;;4440380;32;19937;-78
2023/02/19 13:41:34;;;;;;;;;;;;;;;;;;4423338;32;20265;-79
2023/02/19 13:43:59;;;;;;;;;;;;;;;;;;4424261;32;20345;-77
2023/02/19 13:46:25;;;;;;;;;;;;;;;;;;4436683;32;19969;-78
2023/02/19 13:48:50;;;;;;;;;;;;;;;;;;4438393;32;19952;-79
2023/02/19 13:51:15;;;;;;;;;;;;;;;;;;4437021;32;20310;-78
2023/02/19 13:53:43;;;;;;;;;;;;;;;;;;4436314;32;20410;-78
2023/02/19 13:56:09;;;;;;;;;;;;;;;;;;4438102;32;19940;-79
2023/02/19 13:58:34;;;;;;;;;;;;;;;;;;4436781;32;19932;-79
2023/02/19 14:01:00;;;;;;;;;;;;;;;;;;4436457;32;19945;-79
2023/02/19 14:03:25;;;;;;;;;;;;;;;;;;4435772;32;19974;-78
2023/02/19 14:05:50;;;;;;;;;;;;;;;;;;4435940;32;19948;-77
2023/02/19 14:08:15;;;;;;;;;;;;;;;;;;4437522;32;19940;-79
2023/02/19 14:10:40;;;;;;;;;;;;;;;;;;4435979;32;20345;-78
2023/02/19 14:13:05;;;;;;;;;;;;;;;;;;4437713;32;19970;-81
2023/02/19 14:15:30;;;;;;;;;;;;;;;;;;4437046;32;19972;-78
2023/02/19 14:17:55;;;;;;;;;;;;;;;;;;4435868;32;19948;-78
2023/02/19 14:20:20;;;;;;;;;;;;;;;;;;4423274;32;19995;-78
2023/02/19 14:22:54;;;;;;;;;;;;;;;;;;4435820;32;19947;-79
2023/02/19 14:25:19;;;;;;;;;;;;;;;;;;4438067;32;19948;-79
2023/02/19 14:27:44;;;;;;;;;;;;;;;;;;4439361;32;19951;-79
2023/02/19 14:30:09;;;;;;;;;;;;;;;;;;4440219;32;19951;-79
2023/02/19 14:32:34;;;;;;;;;;;;;;;;;;4424996;32;20000;-78
2023/02/19 14:34:59;;;;;;;;;;;;;;;;;;4439496;32;19978;-79
2023/02/19 14:37:24;;;;;;;;;;;;;;;;;;4426757;32;19941;-79
2023/02/19 14:39:51;;;;;;;;;;;;;;;;;;4439250;32;20321;-78
2023/02/19 14:42:16;;;;;;;;;;;;;;;;;;4440583;32;19961;-79
2023/02/19 14:44:44;;;;;;;;;;;;;;;;;;4441106;32;19979;-80
2023/02/19 14:47:10;;;;;;;;;;;;;;;;;;4440929;32;19937;-81
2023/02/19 14:49:35;;;;;;;;;;;;;;;;;;4440332;32;19956;-79
2023/02/19 14:52:00;;;;;;;;;;;;;;;;;;4427529;32;19982;-80
2023/02/19 14:54:25;;;;;;;;;;;;;;;;;;4442281;32;19941;-79
2023/02/19 14:56:50;;;;;;;;;;;;;;;;;;4441162;32;19933;-80
2023/02/19 14:59:15;;;;;;;;;;;;;;;;;;4440211;32;19999;-80
2023/02/19 15:01:40;;;;;;;;;;;;;;;;;;4439520;32;19957;-79
2023/02/19 15:04:05;;;;;;;;;;;;;;;;;;4440079;32;20371;-80
2023/02/19 15:06:31;;;;;;;;;;;;;;;;;;4440066;32;19945;-81
2023/02/19 15:08:56;;;;;;;;;;;;;;;;;;4439734;32;19951;-79
2023/02/19 15:11:21;;;;;;;;;;;;;;;;;;4440457;32;19968;-81
2023/02/19 15:13:46;;;;;;;;;;;;;;;;;;4426290;32;19960;-81
2023/02/19 15:16:11;;;;;;;;;;;;;;;;;;4441597;32;20016;-80
2023/02/19 15:18:40;;;;;;;;;;;;;;;;;;4439811;32;19944;-82
2023/02/19 15:21:05;;;;;;;;;;;;;;;;;;4441076;32;19949;-81
2023/02/19 15:23:30;;;;;;;;;;;;;;;;;;4441301;32;19991;-80
2023/02/19 15:25:59;;;;;;;;;;;;;;;;;;4448504;32;19949;-81
2023/02/19 15:28:24;;;;;;;;;;;;;;;;;;4427398;32;19937;-81
2023/02/19 15:30:49;;;;;;;;;;;;;;;;;;4442535;32;19951;-80
2023/02/19 15:33:14;;;;;;;;;;;;;;;;;;4440735;32;20279;-79
2023/02/19 15:35:39;;;;;;;;;;;;;;;;;;4438580;32;19952;-80
2023/02/19 15:38:05;;;;;;;;;;;;;;;;;;4442536;32;19947;-80
2023/02/19 15:40:31;;;;;;;;;;;;;;;;;;4436856;32;19952;-80
2023/02/19 15:42:56;;;;;;;;;;;;;;;;;;4442381;32;19974;-80
2023/02/19 15:45:21;;;;;;;;;;;;;;;;;;4439427;32;19968;-81
2023/02/19 15:47:47;;;;;;;;;;;;;;;;;;4440185;32;20234;-80
2023/02/19 15:50:13;;;;;;;;;;;;;;;;;;4441898;32;20350;-81
2023/02/19 15:52:38;;;;;;;;;;;;;;;;;;4441490;32;19940;-81
2023/02/19 15:55:03;;;;;;;;;;;;;;;;;;4446444;32;19929;-81
2023/02/19 15:57:28;;;;;;;;;;;;;;;;;;4445736;32;19933;-81
2023/02/19 15:59:54;;;;;;;;;;;;;;;;;;4441765;32;19940;-81
2023/02/19 16:02:19;;;;;;;;;;;;;;;;;;4441688;32;19941;-80
2023/02/19 16:04:44;;;;;;;;;;;;;;;;;;4440081;32;20330;-81
2023/02/19 16:07:09;;;;;;;;;;;;;;;;;;4426348;32;19966;-80
2023/02/19 16:09:34;;;;;;;;;;;;;;;;;;4439934;32;19940;-80
2023/02/19 16:11:59;;;;;;;;;;;;;;;;;;4427014;32;19951;-82
2023/02/19 16:14:24;;;;;;;;;;;;;;;;;;4446109;32;19951;-80
2023/02/19 16:16:49;;;;;;;;;;;;;;;;;;4447266;32;20341;-80
2023/02/19 16:19:14;;;;;;;;;;;;;;;;;;4444409;32;19936;-79
2023/02/19 16:21:39;;;;;;;;;;;;;;;;;;4446745;32;19971;-80
2023/02/19 16:24:04;;;;;;;;;;;;;;;;;;4448222;32;19940;-81
2023/02/19 16:26:31;;;;;;;;;;;;;;;;;;4447112;32;19943;-81
2023/02/19 16:28:58;;;;;;;;;;;;;;;;;;4445717;32;19947;-82
2023/02/19 16:31:24;;;;;;;;;;;;;;;;;;4445422;32;19941;-81
2023/02/19 16:33:49;;;;;;;;;;;;;;;;;;4447561;32;20341;-80
2023/02/19 16:36:14;;;;;;;;;;;;;;;;;;4445502;32;19969;-80
2023/02/19 16:38:39;;;;;;;;;;;;;;;;;;4443483;32;19994;-81
2023/02/19 16:41:04;;;;;;;;;;;;;;;;;;4440512;32;19980;-80
2023/02/19 16:43:30;;;;;;;;;;;;;;;;;;4444008;32;19982;-80
2023/02/19 16:45:55;;;;;;;;;;;;;;;;;;4444017;32;19995;-80
2023/02/19 16:48:20;;;;;;;;;;;;;;;;;;4445177;32;19994;-80
2023/02/19 16:50:45;;;;;;;;;;;;;;;;;;4440132;32;20272;-79
2023/02/19 16:53:10;;;;;;;;;;;;;;;;;;4441352;32;19932;-81
2023/02/19 16:55:35;;;;;;;;;;;;;;;;;;4446007;32;19933;-81
2023/02/19 16:58:00;;;;;;;;;;;;;;;;;;4446554;32;20028;-79
2023/02/19 17:00:25;;;;;;;;;;;;;;;;;;4442230;32;19944;-80
2023/02/19 17:02:51;;;;;;;;;;;;;;;;;;4441055;32;19963;-80